Martin, Pennsylvania
Current Conditions -  °F | °C
As of 3:53 PM on Sunday 23 Nov 2014 (Local Time) from KMGW Reporting Station
Clear Clear  
Wind Chill: 64°   Ceiling: Unl
Heat Index: 64°   Visibility: 10mi
Dew Point: 36°   Wind: 13mph
Humidity: 35%   Direction: 160°SSE
Pressure: 29.88"   Gusts: 20mph
Location:  39.81°N, 79.91°W
Report Text: KMGW 232053Z 16011G17KT 10SM CLR 18/02 A2988 RMK AO2 SLP114 T01780022 56038
Loading
Personal Weather Stations






























Interactive Weather Map New forecast layout! Learn more

10-Day Weather Forecast

Advertisements
Track Severe Weather on mobile